Walnut Creek, California
Current Conditions -  °F | °C
As of 9:03 PM on Sunday 21 Dec 2014 (Local Time) from KCCR Reporting Station
Scattered Clouds Scattered Clouds  
Wind Chill: 60°   Ceiling: Unl
Heat Index: 60°   Visibility: 10mi
Dew Point: 56°   Wind: 6mph
Humidity: 86%   Direction: 230°SW
Pressure: 30.28"   Gusts: NA
Location:  37.9°N, 122.06°W
Report Text: KCCR 220503Z 23005KT 10SM SCT015 16/13 A3028 RMK AO2 T01560133
Loading
Personal Weather Stations






























Interactive Weather Map New forecast layout! Learn more

10-Day Weather Forecast

Advertisements
Track Severe Weather on mobile